createdAt,value
2023-12-24T00:01:17.823Z,55.56
2023-12-24T00:03:45.187Z,55.46
2023-12-24T00:06:12.606Z,55.40
2023-12-24T00:08:39.873Z,55.44
2023-12-24T00:11:07.248Z,55.42
2023-12-24T00:13:34.891Z,55.39
2023-12-24T00:16:02.465Z,55.29
2023-12-24T00:18:29.854Z,55.36
2023-12-24T00:20:57.227Z,55.30
2023-12-24T00:23:24.477Z,55.34
2023-12-24T00:25:51.620Z,55.39
2023-12-24T00:28:18.716Z,55.49
2023-12-24T00:30:47.349Z,55.43
2023-12-24T00:33:14.689Z,55.35
2023-12-24T00:35:41.941Z,55.40
2023-12-24T00:38:09.164Z,55.34
2023-12-24T00:40:36.334Z,55.26
2023-12-24T00:43:03.648Z,55.18
2023-12-24T00:45:32.438Z,55.31
2023-12-24T00:47:59.817Z,55.34
2023-12-24T00:50:27.191Z,55.23
2023-12-24T00:52:55.012Z,55.17
2023-12-24T00:55:22.412Z,55.21
2023-12-24T00:57:49.554Z,55.08
2023-12-24T01:00:16.860Z,54.95
2023-12-24T01:02:43.936Z,55.02
2023-12-24T01:05:11.111Z,54.89
2023-12-24T01:07:38.218Z,54.77
2023-12-24T01:10:06.486Z,54.66
2023-12-24T01:12:34.010Z,54.56
2023-12-24T01:15:01.162Z,54.54
2023-12-24T01:17:28.489Z,54.44
2023-12-24T01:19:58.166Z,54.38
2023-12-24T01:22:25.434Z,54.60
2023-12-24T01:24:52.488Z,54.33
2023-12-24T01:27:19.585Z,54.16
2023-12-24T01:29:46.761Z,54.33
2023-12-24T01:32:14.494Z,54.36
2023-12-24T01:34:42.645Z,54.32
2023-12-24T01:37:09.730Z,54.41
2023-12-24T01:39:36.947Z,54.30
2023-12-24T01:42:04.508Z,54.29
2023-12-24T01:44:31.735Z,54.03
2023-12-24T01:46:59.572Z,54.24
2023-12-24T01:49:27.198Z,54.07
2023-12-24T01:51:55.569Z,53.88
2023-12-24T01:54:23.655Z,54.06
2023-12-24T01:56:50.809Z,54.03
2023-12-24T01:59:18.440Z,54.03
2023-12-24T02:01:47.347Z,53.90
2023-12-24T02:04:16.293Z,53.83
2023-12-24T02:06:44.640Z,53.74
2023-12-24T02:09:12.034Z,53.91
2023-12-24T02:11:39.165Z,53.74
2023-12-24T02:14:06.504Z,53.75
2023-12-24T02:16:39.209Z,53.60
2023-12-24T02:19:12.237Z,53.58
2023-12-24T02:21:39.389Z,53.67
2023-12-24T02:24:07.400Z,53.57
2023-12-24T02:26:49.072Z,53.33
2023-12-24T02:29:27.783Z,53.34
2023-12-24T02:32:06.194Z,53.41
2023-12-24T02:34:34.425Z,53.55
2023-12-24T02:37:02.012Z,53.39
2023-12-24T02:39:29.077Z,53.55
2023-12-24T02:41:56.248Z,53.52
2023-12-24T02:44:23.466Z,53.58
2023-12-24T02:46:50.546Z,53.47
2023-12-24T02:49:17.953Z,53.59
2023-12-24T02:51:45.166Z,53.67
2023-12-24T02:54:12.329Z,53.47
2023-12-24T02:56:39.491Z,53.52
2023-12-24T02:59:06.759Z,53.59
2023-12-24T03:01:33.869Z,53.67
2023-12-24T03:04:03.361Z,53.94
2023-12-24T03:06:30.424Z,53.91
2023-12-24T03:08:57.533Z,53.80
2023-12-24T03:11:24.639Z,53.86
2023-12-24T03:13:51.704Z,53.72
2023-12-24T03:16:19.596Z,53.73
2023-12-24T03:18:46.807Z,53.57
2023-12-24T03:21:13.944Z,53.66
2023-12-24T03:23:41.062Z,53.67
2023-12-24T03:26:18.176Z,53.55
2023-12-24T03:28:45.697Z,53.54
2023-12-24T03:31:15.977Z,53.46
2023-12-24T03:33:44.232Z,53.35
2023-12-24T03:36:11.558Z,53.28
2023-12-24T03:38:38.829Z,53.11
2023-12-24T03:41:06.200Z,53.04
2023-12-24T03:43:33.873Z,53.01
2023-12-24T03:46:01.074Z,52.94
2023-12-24T03:48:28.484Z,52.71
2023-12-24T03:50:55.661Z,52.79
2023-12-24T03:53:22.864Z,52.70
2023-12-24T03:55:49.944Z,52.43
2023-12-24T03:58:17.154Z,52.45
2023-12-24T04:00:44.274Z,52.58
2023-12-24T04:03:11.403Z,52.46
2023-12-24T04:05:38.628Z,52.35
2023-12-24T04:08:06.099Z,52.23
2023-12-24T04:10:33.216Z,52.16
2023-12-24T04:13:04.291Z,52.01
2023-12-24T04:15:32.286Z,52.16
2023-12-24T04:18:00.767Z,52.04
2023-12-24T04:20:28.247Z,51.95
2023-12-24T04:22:55.413Z,51.83
2023-12-24T04:25:22.516Z,52.00
2023-12-24T04:27:49.658Z,51.87
2023-12-24T04:30:16.901Z,51.97
2023-12-24T04:32:44.694Z,52.04
2023-12-24T04:35:12.451Z,52.17
2023-12-24T04:37:39.571Z,52.15
2023-12-24T04:40:07.839Z,52.03
2023-12-24T04:42:35.570Z,52.18
2023-12-24T04:45:03.566Z,52.28
2023-12-24T04:47:30.754Z,52.42
2023-12-24T04:49:58.041Z,52.38
2023-12-24T04:52:25.152Z,52.44
2023-12-24T04:54:52.294Z,52.42
2023-12-24T04:57:19.414Z,52.45
2023-12-24T04:59:46.806Z,52.31
2023-12-24T05:02:13.975Z,52.36
2023-12-24T05:04:41.045Z,52.40
2023-12-24T05:07:08.277Z,52.31
2023-12-24T05:09:35.850Z,52.39
2023-12-24T05:12:03.085Z,52.37
2023-12-24T05:14:30.937Z,52.18
2023-12-24T05:16:58.189Z,52.42
2023-12-24T05:19:25.399Z,52.27
2023-12-24T05:21:52.548Z,52.43
2023-12-24T05:24:19.694Z,52.43
2023-12-24T05:26:47.466Z,52.24
2023-12-24T05:29:14.924Z,52.14
2023-12-24T05:31:43.103Z,52.05
2023-12-24T05:34:10.260Z,52.22
2023-12-24T05:36:39.717Z,52.12
2023-12-24T05:39:12.429Z,52.10
2023-12-24T05:41:39.708Z,52.13
2023-12-24T05:44:06.864Z,52.11
2023-12-24T05:46:33.944Z,52.21
2023-12-24T05:49:01.181Z,52.15
2023-12-24T05:51:28.525Z,52.06
2023-12-24T05:53:55.577Z,52.11
2023-12-24T05:56:22.701Z,52.13
2023-12-24T05:58:49.794Z,52.18
2023-12-24T06:01:16.987Z,52.11
2023-12-24T06:03:44.203Z,52.11
2023-12-24T06:06:11.681Z,52.01
2023-12-24T06:08:39.487Z,52.17
2023-12-24T06:11:06.863Z,52.13
2023-12-24T06:13:34.006Z,52.12
2023-12-24T06:16:01.097Z,52.06
2023-12-24T06:18:28.371Z,52.17
2023-12-24T06:20:55.658Z,52.28
2023-12-24T06:23:22.821Z,52.19
2023-12-24T06:25:49.948Z,52.35
2023-12-24T06:28:17.056Z,52.30
2023-12-24T06:30:44.338Z,52.28
2023-12-24T06:33:11.594Z,52.25
2023-12-24T06:35:38.836Z,52.37
2023-12-24T06:38:06.048Z,52.47
2023-12-24T06:40:33.469Z,52.40
2023-12-24T06:43:00.550Z,52.50
2023-12-24T06:45:27.688Z,52.72
2023-12-24T06:47:55.080Z,52.65
2023-12-24T06:50:23.524Z,52.71
2023-12-24T06:52:50.970Z,52.88
2023-12-24T06:55:18.204Z,52.86
2023-12-24T06:57:45.258Z,53.01
2023-12-24T07:00:13.331Z,52.91
2023-12-24T07:02:40.497Z,53.02
2023-12-24T07:05:08.144Z,53.09
2023-12-24T07:07:35.291Z,53.13
2023-12-24T07:10:03.550Z,53.13
2023-12-24T07:12:31.376Z,53.30
2023-12-24T07:14:58.512Z,53.34
2023-12-24T07:17:25.775Z,53.24
2023-12-24T07:19:53.048Z,53.30
2023-12-24T07:22:21.085Z,53.41
2023-12-24T07:24:48.162Z,53.54
2023-12-24T07:27:15.444Z,53.49
2023-12-24T07:29:42.862Z,53.39
2023-12-24T07:32:10.474Z,53.46
2023-12-24T07:34:37.517Z,53.46
2023-12-24T07:37:04.801Z,53.42
2023-12-24T07:39:31.877Z,53.48
2023-12-24T07:41:58.964Z,53.65
2023-12-24T07:44:26.142Z,53.70
2023-12-24T07:46:53.390Z,53.63
2023-12-24T07:49:20.542Z,53.66
2023-12-24T07:51:48.878Z,53.83
2023-12-24T07:54:16.176Z,53.77
2023-12-24T07:56:43.370Z,53.83
2023-12-24T07:59:10.544Z,54.13
2023-12-24T08:01:41.098Z,54.36
2023-12-24T08:04:08.198Z,54.67
2023-12-24T08:06:35.657Z,54.69
2023-12-24T08:09:03.469Z,54.96
2023-12-24T08:11:30.613Z,55.05
2023-12-24T08:13:57.749Z,55.13
2023-12-24T08:16:24.843Z,55.36
2023-12-24T08:18:52.074Z,55.47
2023-12-24T08:21:19.315Z,55.56
2023-12-24T08:23:46.376Z,55.67
2023-12-24T08:26:14.984Z,55.74
2023-12-24T08:28:42.547Z,55.79
2023-12-24T08:31:09.619Z,55.97
2023-12-24T08:33:36.738Z,56.18
2023-12-24T08:36:05.217Z,55.94
2023-12-24T08:38:32.369Z,56.30
2023-12-24T08:40:59.761Z,56.63
2023-12-24T08:43:26.802Z,56.77
2023-12-24T08:45:53.864Z,56.73
2023-12-24T08:48:21.224Z,56.74
2023-12-24T08:50:48.502Z,56.98
2023-12-24T08:53:15.687Z,57.10
2023-12-24T08:55:42.782Z,57.13
2023-12-24T08:58:10.113Z,57.26
2023-12-24T09:00:37.210Z,57.28
2023-12-24T09:03:04.830Z,57.26
2023-12-24T09:05:31.998Z,57.35
2023-12-24T09:07:59.679Z,57.34
2023-12-24T09:10:26.728Z,57.31
2023-12-24T09:12:54.121Z,57.44
2023-12-24T09:15:21.548Z,57.28
2023-12-24T09:17:48.821Z,57.38
2023-12-24T09:20:16.046Z,57.36
2023-12-24T09:22:43.175Z,57.36
2023-12-24T09:25:10.284Z,57.41
2023-12-24T09:27:37.431Z,57.56
2023-12-24T09:30:06.206Z,57.49
2023-12-24T09:32:34.072Z,57.53
2023-12-24T09:35:02.116Z,57.51
2023-12-24T09:37:29.389Z,57.58
2023-12-24T09:39:56.508Z,57.45
2023-12-24T09:42:24.049Z,57.53
2023-12-24T09:44:51.213Z,57.52
2023-12-24T09:47:18.462Z,57.50
2023-12-24T09:49:45.691Z,57.42
2023-12-24T09:52:12.845Z,57.43
2023-12-24T09:54:40.346Z,57.46
2023-12-24T09:57:08.232Z,57.49
2023-12-24T09:59:35.326Z,57.49
2023-12-24T10:02:05.171Z,57.42
2023-12-24T10:04:32.650Z,57.52
2023-12-24T10:07:00.727Z,57.42
2023-12-24T10:09:50.482Z,57.40
2023-12-24T10:12:19.473Z,57.58
2023-12-24T10:14:59.253Z,57.62
2023-12-24T10:17:35.152Z,57.69
2023-12-24T10:20:09.695Z,57.78
2023-12-24T10:22:37.082Z,57.86
2023-12-24T10:25:08.512Z,57.81
2023-12-24T10:27:36.063Z,58.19
2023-12-24T10:30:14.562Z,58.16
2023-12-24T10:32:44.134Z,58.12
2023-12-24T10:35:11.769Z,58.19
2023-12-24T10:37:39.106Z,58.24
2023-12-24T10:40:12.291Z,58.33
2023-12-24T10:42:41.020Z,58.42
2023-12-24T10:45:09.807Z,58.54
2023-12-24T10:47:38.088Z,58.65
2023-12-24T10:50:06.457Z,58.67
2023-12-24T10:52:33.934Z,58.61
2023-12-24T10:55:02.709Z,58.58
2023-12-24T10:57:41.273Z,58.58
2023-12-24T11:00:12.416Z,58.66
2023-12-24T11:02:46.305Z,58.67
2023-12-24T11:05:33.739Z,58.77
2023-12-24T11:08:00.896Z,58.69
2023-12-24T11:10:44.842Z,58.59
2023-12-24T11:13:33.053Z,58.57
2023-12-24T11:16:02.444Z,58.61
2023-12-24T11:18:45.724Z,58.53
2023-12-24T11:21:21.259Z,58.46
2023-12-24T11:24:11.964Z,58.65
2023-12-24T11:26:39.446Z,58.75
2023-12-24T11:29:50.744Z,58.50
2023-12-24T11:32:27.633Z,58.74
2023-12-24T11:35:00.376Z,58.83
2023-12-24T11:37:35.628Z,58.71
2023-12-24T11:40:03.300Z,58.64
2023-12-24T11:42:52.631Z,58.75
2023-12-24T11:45:32.875Z,58.83
2023-12-24T11:48:02.661Z,58.98
2023-12-24T11:50:30.677Z,59.01
2023-12-24T11:52:58.610Z,58.91
2023-12-24T11:55:25.842Z,58.98
2023-12-24T11:57:53.063Z,59.09
2023-12-24T12:00:28.196Z,58.89
2023-12-24T12:03:01.288Z,59.02
2023-12-24T12:05:30.330Z,59.21
2023-12-24T12:07:58.035Z,59.28
2023-12-24T12:10:25.289Z,59.33
2023-12-24T12:12:52.927Z,59.42
2023-12-24T12:15:24.765Z,59.45
2023-12-24T12:17:52.527Z,59.46
2023-12-24T12:20:20.465Z,59.48
2023-12-24T12:22:50.529Z,59.56
2023-12-24T12:25:18.200Z,59.54
2023-12-24T12:27:47.103Z,59.60
2023-12-24T12:30:15.669Z,59.58
2023-12-24T12:32:42.826Z,59.66
2023-12-24T12:35:12.073Z,59.64
2023-12-24T12:37:39.362Z,59.81
2023-12-24T12:40:07.611Z,59.86
2023-12-24T12:42:42.750Z,60.02
2023-12-24T12:45:12.262Z,59.81
2023-12-24T12:47:40.040Z,59.89
2023-12-24T12:50:08.551Z,59.98
2023-12-24T12:52:35.988Z,59.83
2023-12-24T12:55:09.106Z,59.96
2023-12-24T12:57:40.233Z,60.07
2023-12-24T13:00:31.603Z,59.95
2023-12-24T13:03:08.739Z,59.99
2023-12-24T13:05:36.125Z,60.17
2023-12-24T13:08:16.669Z,59.95
2023-12-24T13:10:44.429Z,60.11
2023-12-24T13:13:25.574Z,59.96
2023-12-24T13:16:08.509Z,60.07
2023-12-24T13:18:36.655Z,60.33
2023-12-24T13:21:08.840Z,60.21
2023-12-24T13:23:36.259Z,60.26
2023-12-24T13:26:05.219Z,60.36
2023-12-24T13:28:34.093Z,60.29
2023-12-24T13:31:02.613Z,60.18
2023-12-24T13:33:29.892Z,60.24
2023-12-24T13:35:57.135Z,60.16
2023-12-24T13:38:24.307Z,60.15
2023-12-24T13:40:53.170Z,60.21
2023-12-24T13:43:20.464Z,60.11
2023-12-24T13:45:47.897Z,60.03
2023-12-24T13:48:15.339Z,60.09
2023-12-24T13:50:43.429Z,60.12
2023-12-24T13:53:19.479Z,60.07
2023-12-24T13:55:58.542Z,60.36
2023-12-24T13:58:26.662Z,60.13
2023-12-24T14:00:53.948Z,60.18
2023-12-24T14:03:26.024Z,60.28
2023-12-24T14:05:53.791Z,60.24
2023-12-24T14:08:24.047Z,60.12
2023-12-24T14:10:51.297Z,60.12
2023-12-24T14:13:18.476Z,60.19
2023-12-24T14:15:45.827Z,60.09
2023-12-24T14:18:13.048Z,60.07
2023-12-24T14:20:40.391Z,60.07
2023-12-24T14:23:09.424Z,60.06
2023-12-24T14:25:36.940Z,60.01
2023-12-24T14:28:04.500Z,60.02
2023-12-24T14:30:31.881Z,59.92
2023-12-24T14:32:59.278Z,59.79
2023-12-24T14:35:26.648Z,59.89
2023-12-24T14:37:53.739Z,59.85
2023-12-24T14:40:22.028Z,59.76
2023-12-24T14:42:50.081Z,59.84
2023-12-24T14:45:17.227Z,59.79
2023-12-24T14:47:44.439Z,59.86
2023-12-24T14:50:11.655Z,59.96
2023-12-24T14:52:38.715Z,59.88
2023-12-24T14:55:08.303Z,59.95
2023-12-24T14:57:36.942Z,59.92
2023-12-24T15:00:06.699Z,59.94
2023-12-24T15:02:33.958Z,60.08
2023-12-24T15:05:01.560Z,60.08
2023-12-24T15:07:29.556Z,60.05
2023-12-24T15:09:57.410Z,59.99
2023-12-24T15:12:24.644Z,60.05
2023-12-24T15:14:52.484Z,60.04
2023-12-24T15:17:19.836Z,60.02
2023-12-24T15:19:47.003Z,60.01
2023-12-24T15:22:14.498Z,59.93
2023-12-24T15:24:41.834Z,60.01
2023-12-24T15:27:09.478Z,59.91
2023-12-24T15:29:37.318Z,59.80
2023-12-24T15:32:11.330Z,59.72
2023-12-24T15:34:38.876Z,59.72
2023-12-24T15:37:06.061Z,59.60
2023-12-24T15:39:35.848Z,59.60
2023-12-24T15:42:05.981Z,59.60
2023-12-24T15:44:33.273Z,59.55
2023-12-24T15:47:00.370Z,59.58
2023-12-24T15:49:27.560Z,59.48
2023-12-24T15:51:54.592Z,59.47
2023-12-24T15:54:21.755Z,59.37
2023-12-24T15:56:48.974Z,59.49
2023-12-24T15:59:16.086Z,59.50
2023-12-24T16:01:44.586Z,59.41
2023-12-24T16:04:13.583Z,59.26
2023-12-24T16:06:41.649Z,59.36
2023-12-24T16:09:09.093Z,59.37
2023-12-24T16:11:37.434Z,59.42
2023-12-24T16:14:08.144Z,59.27
2023-12-24T16:16:36.031Z,59.32
2023-12-24T16:19:03.859Z,59.31
2023-12-24T16:21:33.611Z,59.25
2023-12-24T16:24:02.200Z,59.16
2023-12-24T16:26:29.403Z,59.14
2023-12-24T16:28:56.499Z,59.16
2023-12-24T16:31:23.714Z,59.14
2023-12-24T16:33:51.005Z,59.22
2023-12-24T16:36:25.537Z,58.91
2023-12-24T16:38:55.279Z,58.87
2023-12-24T16:41:23.857Z,58.72
2023-12-24T16:43:51.464Z,58.78
2023-12-24T16:46:18.538Z,58.70
2023-12-24T16:48:46.041Z,58.55
2023-12-24T16:51:32.470Z,58.32
2023-12-24T16:54:00.922Z,58.45
2023-12-24T16:56:28.631Z,58.24
2023-12-24T16:58:55.824Z,58.17
2023-12-24T17:01:22.928Z,58.10
2023-12-24T17:03:50.054Z,58.04
2023-12-24T17:06:17.330Z,57.98
2023-12-24T17:08:45.208Z,57.90
2023-12-24T17:11:12.662Z,57.99
2023-12-24T17:13:42.307Z,57.85
2023-12-24T17:16:09.476Z,57.97
2023-12-24T17:18:36.755Z,57.88
2023-12-24T17:21:04.212Z,57.86
2023-12-24T17:23:31.293Z,57.92
2023-12-24T17:25:59.401Z,57.68
2023-12-24T17:28:26.507Z,57.62
2023-12-24T17:30:53.754Z,57.67
2023-12-24T17:33:21.126Z,57.59
2023-12-24T17:35:48.444Z,57.58
2023-12-24T17:38:16.514Z,57.56
2023-12-24T17:40:43.744Z,57.45
2023-12-24T17:43:10.862Z,57.41
2023-12-24T17:45:37.944Z,57.38
2023-12-24T17:48:13.573Z,57.29
2023-12-24T17:50:46.755Z,57.61
2023-12-24T17:53:14.244Z,57.67
2023-12-24T17:55:42.271Z,57.41
2023-12-24T17:58:10.359Z,57.46
2023-12-24T18:00:37.686Z,57.29
2023-12-24T18:03:05.246Z,57.05
2023-12-24T18:05:32.552Z,57.07
2023-12-24T18:07:59.741Z,57.01
2023-12-24T18:10:26.865Z,57.15
2023-12-24T18:12:54.222Z,57.02
2023-12-24T18:15:21.581Z,56.81
2023-12-24T18:17:49.009Z,56.96
2023-12-24T18:20:16.970Z,56.91
2023-12-24T18:22:44.478Z,56.82
2023-12-24T18:25:11.720Z,56.70
2023-12-24T18:27:38.822Z,56.71
2023-12-24T18:30:06.814Z,56.62
2023-12-24T18:32:34.100Z,56.44
2023-12-24T18:35:01.245Z,56.34
2023-12-24T18:37:28.624Z,56.19
2023-12-24T18:39:55.761Z,56.18
2023-12-24T18:42:23.163Z,56.10
2023-12-24T18:44:50.298Z,56.23
2023-12-24T18:47:17.681Z,55.99
2023-12-24T18:49:46.758Z,56.08
2023-12-24T18:52:13.845Z,55.98
2023-12-24T18:54:45.772Z,55.93
2023-12-24T18:57:14.369Z,55.97
2023-12-24T18:59:41.702Z,55.88
2023-12-24T19:02:09.014Z,55.92
2023-12-24T19:04:36.822Z,55.73
2023-12-24T19:07:07.094Z,55.70
2023-12-24T19:09:35.218Z,55.67
2023-12-24T19:12:02.382Z,55.69
2023-12-24T19:14:29.623Z,55.57
2023-12-24T19:16:56.769Z,55.61
2023-12-24T19:19:24.001Z,55.39
2023-12-24T19:21:51.171Z,55.52
2023-12-24T19:24:22.982Z,55.48
2023-12-24T19:26:50.366Z,55.41
2023-12-24T19:29:17.615Z,55.44
2023-12-24T19:31:44.784Z,55.36
2023-12-24T19:34:11.944Z,55.24
2023-12-24T19:36:39.133Z,55.33
2023-12-24T19:39:06.269Z,55.33
2023-12-24T19:41:33.480Z,55.14
2023-12-24T19:44:00.716Z,54.98
2023-12-24T19:46:27.832Z,55.02
2023-12-24T19:48:55.336Z,55.00
2023-12-24T19:51:23.499Z,55.00
2023-12-24T19:53:52.758Z,54.86
2023-12-24T19:56:20.233Z,55.02
2023-12-24T19:58:47.635Z,54.95
2023-12-24T20:01:14.818Z,54.78
2023-12-24T20:03:41.881Z,54.61
2023-12-24T20:06:09.216Z,54.67
2023-12-24T20:08:36.550Z,54.64
2023-12-24T20:11:03.932Z,54.56
2023-12-24T20:13:31.045Z,54.36
2023-12-24T20:15:58.159Z,54.47
2023-12-24T20:18:25.522Z,54.41
2023-12-24T20:20:52.732Z,54.38
2023-12-24T20:23:20.001Z,54.25
2023-12-24T20:25:47.190Z,54.11
2023-12-24T20:28:14.268Z,54.14
2023-12-24T20:30:41.897Z,53.91
2023-12-24T20:33:11.245Z,54.07
2023-12-24T20:35:38.536Z,54.00
2023-12-24T20:38:05.736Z,54.02
2023-12-24T20:40:32.886Z,53.63
2023-12-24T20:43:00.514Z,53.71
2023-12-24T20:45:27.901Z,53.56
2023-12-24T20:47:55.205Z,53.22
2023-12-24T20:50:22.392Z,53.40
2023-12-24T20:52:49.455Z,52.80
2023-12-24T20:55:16.625Z,52.67
2023-12-24T20:57:43.792Z,52.51
2023-12-24T21:00:11.903Z,52.24
2023-12-24T21:02:39.187Z,51.83
2023-12-24T21:05:08.309Z,51.40
2023-12-24T21:07:35.468Z,51.37
2023-12-24T21:10:02.628Z,51.05
2023-12-24T21:12:29.678Z,50.99
2023-12-24T21:14:56.829Z,50.62
2023-12-24T21:17:24.140Z,50.50
2023-12-24T21:19:51.524Z,49.83
2023-12-24T21:22:18.663Z,50.03
2023-12-24T21:24:45.714Z,49.82
2023-12-24T21:27:12.762Z,49.68
2023-12-24T21:29:39.895Z,49.67
2023-12-24T21:32:07.234Z,49.58
2023-12-24T21:34:34.394Z,49.58
2023-12-24T21:37:01.449Z,49.42
2023-12-24T21:39:28.958Z,49.13
2023-12-24T21:41:56.211Z,49.10
2023-12-24T21:44:23.802Z,48.97
2023-12-24T21:46:50.960Z,49.06
2023-12-24T21:49:18.281Z,49.05
2023-12-24T21:51:49.771Z,48.80
2023-12-24T21:54:18.448Z,48.73
2023-12-24T21:56:45.669Z,49.08
2023-12-24T21:59:12.977Z,48.46
2023-12-24T22:01:40.330Z,48.50
2023-12-24T22:04:07.593Z,48.29
2023-12-24T22:06:34.804Z,48.29
2023-12-24T22:09:02.016Z,48.41
2023-12-24T22:11:29.318Z,48.02
2023-12-24T22:13:56.426Z,47.67
2023-12-24T22:16:23.598Z,48.02
2023-12-24T22:18:51.240Z,47.85
2023-12-24T22:21:18.476Z,47.83
2023-12-24T22:23:45.645Z,47.95
2023-12-24T22:26:13.223Z,47.84
2023-12-24T22:28:40.473Z,48.01
2023-12-24T22:31:08.162Z,47.51
2023-12-24T22:33:35.763Z,47.77
2023-12-24T22:36:03.376Z,47.76
2023-12-24T22:38:30.678Z,47.84
2023-12-24T22:40:58.260Z,47.50
2023-12-24T22:43:25.399Z,47.36
2023-12-24T22:45:52.809Z,47.73
2023-12-24T22:48:20.318Z,47.52
2023-12-24T22:50:47.768Z,47.50
2023-12-24T22:53:15.220Z,47.49
2023-12-24T22:55:42.544Z,47.31
2023-12-24T22:58:09.903Z,47.23
2023-12-24T23:00:37.110Z,47.29
2023-12-24T23:03:04.717Z,47.39
2023-12-24T23:05:31.960Z,47.53
2023-12-24T23:07:59.077Z,47.43
2023-12-24T23:10:26.488Z,47.66
2023-12-24T23:12:53.660Z,47.48
2023-12-24T23:15:20.867Z,47.51
2023-12-24T23:17:48.108Z,47.40
2023-12-24T23:20:15.437Z,47.74
2023-12-24T23:22:42.505Z,47.69
2023-12-24T23:25:09.624Z,47.58
2023-12-24T23:27:36.793Z,47.47
2023-12-24T23:30:05.139Z,47.65
2023-12-24T23:32:32.328Z,47.87
2023-12-24T23:34:59.527Z,47.62
2023-12-24T23:37:26.655Z,47.72
2023-12-24T23:39:53.794Z,47.87
2023-12-24T23:42:20.883Z,47.71
2023-12-24T23:44:48.027Z,47.69
2023-12-24T23:47:15.169Z,47.65
2023-12-24T23:49:42.356Z,47.82
2023-12-24T23:52:09.817Z,47.72
2023-12-24T23:54:36.950Z,47.64
2023-12-24T23:57:04.865Z,47.83
2023-12-24T23:59:33.946Z,47.86
